Gloucester City, NJ (08030)

17:42 EST le 27 février 2017 (GMT -0500)
MNJ68 | | Change Station

Alt. 16 ft 39.88 °N, 75.14 °W | Updated 13 minutes ago

Couvert
Couvert
53.0 ° F
Paraît 53.0 ° F
N
8.0
Vent Variable Vent de SO

Aujourd'hui
Haut(e) -- | Bas -- ° F
--% Risque de précip.
Hier
Haut(e) -- | Bas -- ° F
Precip. -- pouce
Pression 30.41 pouce
Visibilité 10.0 Miles terrestres
Nuages Peu 5000 ft
Nuageux 7000 ft
Couvert 10000 ft
Point de rosée 27 ° F
Humidité 37%
Précipitations 0.00 pouce
Profondeur de la couche neigeuse Non disponible.
6:36 AM 5:50 PM
Nouvelle lune, 2% visible
METAR KPHL 272154Z 24011KT 10SM FEW050 BKN070 OVC100 12/M04 A3041 RMK AO2 SLP296 T01171044
Pression 30.41 pouce
Visibilité 10.0 Miles terrestres
Nuages Peu 5000 ft
Nuageux 7000 ft
Couvert 10000 ft
Point de rosée 27 ° F
Humidité 37%
Précipitations 0.00 pouce
Profondeur de la couche neigeuse Non disponible.
6:36 AM 5:50 PM
Nouvelle lune, 2% visible
METAR KPHL 272154Z 24011KT 10SM FEW050 BKN070 OVC100 12/M04 A3041 RMK AO2 SLP296 T01171044

Get Your Daily Forecast Email!

Thanks for signing up!

Be on the lookout for a verification email in your inbox.

You'll start receiving the daily forecast at 8 AM.

×

10-Day Weather Forecast

Almanac

Astronomie

Feb. 27, 2017 Lever Coucher
Temps réel
Crépuscule civil
Crépuscule nautique
Crépuscule astronomique
Lune
Durée de lumière visible
Longueur du jour
Tomorrow will be .
, % of the Moon is Illuminated

Extrêmes aujourd'hui

State Highs State Lows

Community

WunderPhotos

Upload Photos

1,962,540 Photos téléchargées !

WunderBlog® & News

Nearby

Qualité de l'air

  Qualité de l'air Indice de la qualité de l'air Polluant
Not available.

Épaisseur de neige

Station Depth Altitude

Activité sismique

Ville Distance Mag. Time & Date
Minimum magnitude displayed is 2.5.

Températures des eaux côtières

Lieu Température

Stations

Stations météo à proximité

Emplacement de la station Température Refroidissement éolien Point de rosée Humidité Vent Precip. Alt. Mise à jour Type
                   

Watches & Warnings

There are currently no watches in effect.